createdAt,value
2018-05-13T00:00:37.360Z,13.70
2018-05-13T00:01:40.653Z,14.93
2018-05-13T00:02:43.208Z,20.77
2018-05-13T00:03:45.729Z,14.23
2018-05-13T00:04:49.026Z,13.57
2018-05-13T00:05:51.556Z,16.12
2018-05-13T00:06:54.086Z,14.00
2018-05-13T00:07:57.405Z,14.40
2018-05-13T00:08:59.968Z,15.07
2018-05-13T00:10:03.877Z,13.62
2018-05-13T00:11:06.404Z,13.90
2018-05-13T00:12:09.696Z,15.15
2018-05-13T00:13:12.224Z,14.07
2018-05-13T00:14:14.788Z,12.90
2018-05-13T00:15:17.317Z,13.68
2018-05-13T00:16:19.873Z,12.88
2018-05-13T00:17:22.404Z,14.15
2018-05-13T00:18:24.923Z,13.23
2018-05-13T00:19:27.486Z,13.38
2018-05-13T00:20:30.021Z,15.30
2018-05-13T00:21:33.348Z,12.65
2018-05-13T00:22:35.881Z,15.45
2018-05-13T00:23:38.417Z,14.82
2018-05-13T00:24:40.948Z,15.75
2018-05-13T00:25:43.516Z,14.95
2018-05-13T00:26:46.073Z,13.70
2018-05-13T00:27:48.593Z,17.60
2018-05-13T00:28:51.893Z,14.15
2018-05-13T00:29:54.431Z,13.57
2018-05-13T00:30:56.957Z,16.17
2018-05-13T00:31:59.525Z,14.05
2018-05-13T00:33:02.048Z,14.55
2018-05-13T00:34:05.345Z,16.67
2018-05-13T00:35:07.873Z,14.05
2018-05-13T00:36:11.247Z,16.87
2018-05-13T00:37:13.776Z,18.35
2018-05-13T00:38:16.327Z,16.00
2018-05-13T00:39:18.843Z,14.60
2018-05-13T00:40:22.175Z,15.13
2018-05-13T00:41:24.714Z,14.80
2018-05-13T00:42:27.275Z,16.02
2018-05-13T00:43:29.815Z,15.02
2018-05-13T00:44:32.371Z,15.32
2018-05-13T00:45:35.160Z,15.27
2018-05-13T00:46:37.709Z,13.93
2018-05-13T00:47:40.248Z,15.88
2018-05-13T00:48:42.843Z,15.68
2018-05-13T00:49:45.378Z,14.57
2018-05-13T00:50:47.951Z,14.32
2018-05-13T00:51:50.478Z,13.57
2018-05-13T00:52:53.004Z,12.50
2018-05-13T00:53:55.538Z,13.27
2018-05-13T00:54:58.852Z,17.92
2018-05-13T00:56:01.429Z,16.10
2018-05-13T00:57:03.999Z,15.50
2018-05-13T00:58:06.544Z,17.42
2018-05-13T00:59:09.069Z,21.83
2018-05-13T01:00:12.362Z,20.45
2018-05-13T01:01:15.658Z,21.52
2018-05-13T01:02:18.229Z,19.73
2018-05-13T01:03:20.777Z,16.98
2018-05-13T01:04:24.069Z,16.80
2018-05-13T01:05:27.398Z,17.48
2018-05-13T01:06:29.923Z,15.00
2018-05-13T01:07:32.476Z,14.57
2018-05-13T01:08:35.812Z,12.90
2018-05-13T01:09:38.341Z,12.25
2018-05-13T01:10:41.638Z,16.15
2018-05-13T01:11:44.174Z,12.68
2018-05-13T01:12:47.474Z,15.43
2018-05-13T01:13:50.878Z,15.93
2018-05-13T01:14:53.412Z,13.93
2018-05-13T01:15:56.721Z,14.93
2018-05-13T01:16:59.245Z,13.07
2018-05-13T01:18:01.779Z,14.05
2018-05-13T01:19:04.344Z,17.02
2018-05-13T01:20:06.863Z,16.95
2018-05-13T01:21:10.149Z,17.05
2018-05-13T01:22:13.489Z,16.17
2018-05-13T01:23:16.016Z,14.15
2018-05-13T01:24:18.544Z,16.80
2018-05-13T01:25:21.076Z,13.95
2018-05-13T01:26:23.605Z,15.45
2018-05-13T01:27:26.936Z,14.18
2018-05-13T01:28:29.479Z,17.52
2018-05-13T01:29:32.013Z,13.95
2018-05-13T01:30:35.306Z,18.10
2018-05-13T01:31:38.604Z,14.80
2018-05-13T01:32:41.178Z,18.17
2018-05-13T01:33:43.701Z,15.20
2018-05-13T01:34:46.236Z,17.58
2018-05-13T01:35:48.764Z,18.75
2018-05-13T01:36:51.296Z,18.52
2018-05-13T01:37:53.867Z,16.48
2018-05-13T01:38:56.401Z,18.12
2018-05-13T01:39:58.929Z,19.50
2018-05-13T01:41:01.454Z,21.17
2018-05-13T01:42:03.984Z,18.02
2018-05-13T01:43:06.706Z,20.75
2018-05-13T01:44:09.235Z,18.87
2018-05-13T01:45:11.766Z,19.33
2018-05-13T01:46:14.292Z,17.45
2018-05-13T01:47:16.829Z,25.95
2018-05-13T01:48:19.416Z,20.02
2018-05-13T01:49:21.942Z,17.48
2018-05-13T01:50:24.465Z,19.15
2018-05-13T01:51:26.987Z,18.83
2018-05-13T01:52:29.524Z,19.17
2018-05-13T01:53:32.093Z,16.85
2018-05-13T01:54:34.623Z,24.55
2018-05-13T01:55:37.156Z,16.95
2018-05-13T01:56:39.713Z,17.05
2018-05-13T01:57:42.229Z,19.25
2018-05-13T01:58:44.797Z,18.20
2018-05-13T01:59:47.365Z,16.87
2018-05-13T02:00:49.932Z,18.42
2018-05-13T02:01:52.475Z,21.23
2018-05-13T02:02:55.008Z,16.62
2018-05-13T02:03:57.567Z,17.60
2018-05-13T02:05:00.100Z,16.85
2018-05-13T02:06:03.426Z,19.02
2018-05-13T02:07:05.967Z,15.23
2018-05-13T02:08:09.269Z,16.05
2018-05-13T02:09:11.802Z,16.58
2018-05-13T02:10:15.098Z,15.32
2018-05-13T02:11:18.432Z,17.12
2018-05-13T02:12:20.986Z,16.12
2018-05-13T02:13:23.518Z,17.10
2018-05-13T02:14:26.808Z,19.67
2018-05-13T02:15:29.497Z,14.85
2018-05-13T02:16:32.041Z,21.40
2018-05-13T02:17:34.569Z,16.25
2018-05-13T02:18:37.099Z,15.38
2018-05-13T02:19:39.637Z,18.95
2018-05-13T02:20:42.226Z,19.80
2018-05-13T02:21:44.754Z,15.60
2018-05-13T02:22:48.048Z,13.75
2018-05-13T02:23:51.344Z,14.30
2018-05-13T02:24:53.876Z,14.90
2018-05-13T02:25:57.224Z,14.35
2018-05-13T02:26:59.743Z,12.82
2018-05-13T02:28:03.041Z,13.07
2018-05-13T02:29:05.586Z,15.88
2018-05-13T02:30:08.911Z,12.70
2018-05-13T02:31:11.483Z,13.30
2018-05-13T02:32:14.017Z,15.32
2018-05-13T02:33:17.313Z,13.32
2018-05-13T02:34:19.869Z,12.52
2018-05-13T02:35:23.165Z,13.07
2018-05-13T02:36:25.706Z,13.93
2018-05-13T02:37:29.002Z,14.25
2018-05-13T02:38:32.302Z,18.12
2018-05-13T02:39:34.878Z,13.60
2018-05-13T02:40:37.408Z,14.25
2018-05-13T02:41:40.710Z,14.75
2018-05-13T02:42:43.240Z,13.80
2018-05-13T02:43:45.768Z,16.20
2018-05-13T02:44:48.342Z,13.43
2018-05-13T02:45:50.872Z,12.75
2018-05-13T02:46:53.415Z,12.77
2018-05-13T02:47:56.717Z,12.40
2018-05-13T02:48:59.310Z,11.73
2018-05-13T02:50:01.838Z,15.20
2018-05-13T02:51:05.147Z,19.75
2018-05-13T02:52:07.683Z,14.20
2018-05-13T02:53:10.219Z,13.15
2018-05-13T02:54:12.781Z,12.55
2018-05-13T02:55:15.377Z,15.88
2018-05-13T02:56:17.905Z,14.60
2018-05-13T02:57:20.437Z,13.20
2018-05-13T02:58:23.727Z,17.08
2018-05-13T02:59:26.263Z,14.82
2018-05-13T03:00:28.840Z,17.70
2018-05-13T03:01:32.152Z,14.73
2018-05-13T03:02:34.678Z,18.87
2018-05-13T03:03:37.208Z,14.20
2018-05-13T03:04:39.749Z,14.52
2018-05-13T03:05:42.321Z,13.07
2018-05-13T03:06:44.852Z,15.52
2018-05-13T03:07:47.391Z,18.62
2018-05-13T03:08:49.943Z,18.35
2018-05-13T03:09:52.477Z,15.45
2018-05-13T03:10:55.006Z,13.62
2018-05-13T03:11:57.575Z,19.80
2018-05-13T03:13:00.114Z,15.82
2018-05-13T03:14:02.648Z,15.18
2018-05-13T03:15:05.227Z,15.63
2018-05-13T03:16:07.792Z,17.50
2018-05-13T03:17:10.351Z,16.95
2018-05-13T03:18:12.891Z,16.77
2018-05-13T03:19:16.182Z,16.42
2018-05-13T03:20:18.754Z,14.45
2018-05-13T03:21:22.392Z,17.75
2018-05-13T03:22:24.946Z,15.27
2018-05-13T03:23:27.476Z,18.15
2018-05-13T03:24:30.009Z,13.40
2018-05-13T03:25:32.597Z,15.23
2018-05-13T03:26:35.917Z,20.25
2018-05-13T03:27:38.489Z,16.00
2018-05-13T03:28:41.019Z,19.30
2018-05-13T03:29:44.329Z,21.55
2018-05-13T03:30:47.003Z,19.05
2018-05-13T03:31:49.562Z,18.95
2018-05-13T03:32:52.089Z,19.20
2018-05-13T03:33:54.681Z,21.70
2018-05-13T03:34:57.232Z,21.35
2018-05-13T03:36:00.570Z,20.20
2018-05-13T03:37:03.103Z,18.10
2018-05-13T03:38:05.634Z,14.57
2018-05-13T03:39:08.174Z,20.00
2018-05-13T03:40:10.705Z,20.92
2018-05-13T03:41:13.286Z,17.02
2018-05-13T03:42:15.818Z,22.27
2018-05-13T03:43:19.125Z,21.67
2018-05-13T03:44:21.672Z,21.55
2018-05-13T03:45:24.969Z,17.62
2018-05-13T03:46:27.541Z,17.10
2018-05-13T03:47:30.082Z,19.50
2018-05-13T03:48:33.384Z,19.55
2018-05-13T03:49:35.919Z,18.73
2018-05-13T03:50:38.461Z,18.75
2018-05-13T03:51:41.028Z,20.85
2018-05-13T03:52:43.605Z,19.98
2018-05-13T03:53:46.135Z,19.27
2018-05-13T03:54:48.706Z,19.70
2018-05-13T03:55:51.241Z,22.13
2018-05-13T03:56:54.573Z,25.95
2018-05-13T03:57:57.116Z,22.25
2018-05-13T03:58:59.652Z,18.20
2018-05-13T04:00:02.940Z,20.85
2018-05-13T04:01:06.236Z,19.42
2018-05-13T04:02:08.810Z,17.08
2018-05-13T04:03:11.341Z,22.02
2018-05-13T04:04:13.862Z,19.02
2018-05-13T04:05:16.424Z,18.27
2018-05-13T04:06:19.795Z,16.52
2018-05-13T04:07:22.386Z,22.62
2018-05-13T04:10:13.114Z,21.98
2018-05-13T04:11:27.648Z,18.75
2018-05-13T04:12:42.035Z,21.45
2018-05-13T04:13:57.180Z,19.52
2018-05-13T04:15:22.418Z,21.55
2018-05-13T04:16:24.969Z,35.05
2018-05-13T04:17:27.546Z,26.00
2018-05-13T04:18:30.075Z,17.55
2018-05-13T04:19:32.604Z,24.98
2018-05-13T04:20:35.147Z,19.00
2018-05-13T04:21:37.684Z,22.00
2018-05-13T04:22:41.016Z,22.42
2018-05-13T04:23:43.531Z,20.10
2018-05-13T04:24:46.052Z,20.42
2018-05-13T04:25:48.600Z,24.33
2018-05-13T04:26:51.176Z,21.27
2018-05-13T04:27:53.707Z,18.87
2018-05-13T04:28:57.000Z,22.02
2018-05-13T04:29:59.547Z,21.55
2018-05-13T04:31:02.841Z,25.85
2018-05-13T04:32:06.180Z,18.85
2018-05-13T04:33:08.721Z,18.27
2018-05-13T04:34:11.262Z,22.70
2018-05-13T04:35:14.556Z,21.58
2018-05-13T04:36:17.084Z,20.73
2018-05-13T04:37:19.669Z,21.58
2018-05-13T04:38:22.960Z,22.20
2018-05-13T04:39:26.263Z,24.58
2018-05-13T04:40:28.800Z,19.30
2018-05-13T04:41:32.102Z,24.12
2018-05-13T04:42:34.670Z,19.05
2018-05-13T04:43:37.196Z,19.00
2018-05-13T04:44:39.754Z,18.95
2018-05-13T04:45:42.282Z,24.63
2018-05-13T04:46:44.831Z,19.30
2018-05-13T04:47:47.371Z,24.63
2018-05-13T04:48:49.932Z,24.12
2018-05-13T04:49:52.452Z,20.85
2018-05-13T04:50:54.988Z,22.95
2018-05-13T04:51:58.279Z,20.50
2018-05-13T04:53:01.589Z,19.23
2018-05-13T04:54:04.160Z,23.55
2018-05-13T04:55:06.680Z,23.60
2018-05-13T04:56:10.008Z,22.48
2018-05-13T04:57:12.539Z,20.62
2018-05-13T04:58:15.839Z,21.25
2018-05-13T04:59:18.429Z,20.48
2018-05-13T05:00:20.952Z,32.28
2018-05-13T05:01:24.273Z,25.35
2018-05-13T05:02:26.799Z,21.67
2018-05-13T05:03:30.097Z,24.65
2018-05-13T05:04:33.398Z,22.55
2018-05-13T05:05:35.919Z,21.25
2018-05-13T05:06:38.478Z,20.35
2018-05-13T05:07:41.003Z,23.10
2018-05-13T05:08:43.532Z,22.83
2018-05-13T05:09:46.845Z,22.27
2018-05-13T05:10:49.411Z,22.83
2018-05-13T05:11:51.937Z,23.42
2018-05-13T05:12:54.467Z,21.05
2018-05-13T05:13:56.996Z,21.77
2018-05-13T05:14:59.563Z,21.08
2018-05-13T05:16:02.098Z,21.95
2018-05-13T05:17:04.635Z,24.98
2018-05-13T05:18:07.174Z,21.33
2018-05-13T05:19:09.747Z,25.23
2018-05-13T05:20:12.272Z,22.60
2018-05-13T05:21:14.802Z,23.50
2018-05-13T05:22:17.332Z,21.73
2018-05-13T05:23:19.867Z,33.45
2018-05-13T05:24:23.207Z,23.08
2018-05-13T05:25:25.744Z,22.00
2018-05-13T05:26:28.331Z,20.50
2018-05-13T05:27:30.865Z,26.30
2018-05-13T05:28:34.162Z,22.58
2018-05-13T05:29:36.704Z,20.15
2018-05-13T05:30:39.233Z,26.67
2018-05-13T05:31:41.788Z,20.80
2018-05-13T05:32:44.313Z,27.65
2018-05-13T05:33:47.648Z,21.25
2018-05-13T05:34:50.179Z,19.70
2018-05-13T05:35:52.729Z,21.60
2018-05-13T05:36:55.284Z,24.35
2018-05-13T05:37:57.821Z,23.62
2018-05-13T05:39:00.366Z,21.33
2018-05-13T05:40:02.903Z,23.12
2018-05-13T05:41:06.241Z,27.62
2018-05-13T05:42:08.775Z,21.25
2018-05-13T05:43:11.297Z,23.58
2018-05-13T05:44:13.877Z,23.17
2018-05-13T05:45:17.176Z,23.42
2018-05-13T05:46:19.744Z,22.67
2018-05-13T05:47:22.279Z,21.80
2018-05-13T05:48:24.810Z,22.40
2018-05-13T05:49:27.357Z,22.92
2018-05-13T05:50:29.922Z,24.37
2018-05-13T05:51:32.457Z,23.65
2018-05-13T05:52:35.744Z,23.80
2018-05-13T05:53:39.069Z,24.77
2018-05-13T05:54:41.627Z,21.92
2018-05-13T05:55:44.168Z,21.92
2018-05-13T05:56:47.468Z,24.87
2018-05-13T05:57:50.004Z,22.83
2018-05-13T05:58:52.562Z,28.20
2018-05-13T05:59:55.120Z,26.40
2018-05-13T06:00:57.656Z,26.15
2018-05-13T06:02:00.189Z,28.83
2018-05-13T06:03:02.719Z,28.00
2018-05-13T06:04:05.287Z,23.70
2018-05-13T06:05:07.853Z,22.40
2018-05-13T06:06:10.383Z,22.23
2018-05-13T06:07:12.915Z,22.60
2018-05-13T06:08:16.205Z,28.00
2018-05-13T06:09:18.769Z,22.33
2018-05-13T06:10:22.064Z,25.70
2018-05-13T06:11:24.602Z,28.23
2018-05-13T06:12:27.131Z,28.60
2018-05-13T06:13:29.672Z,23.92
2018-05-13T06:14:32.253Z,27.58
2018-05-13T06:15:34.804Z,29.02
2018-05-13T06:16:37.333Z,28.75
2018-05-13T06:17:39.895Z,26.98
2018-05-13T06:18:42.423Z,29.30
2018-05-13T06:19:44.982Z,33.95
2018-05-13T06:20:47.542Z,27.40
2018-05-13T06:21:50.114Z,25.65
2018-05-13T06:22:52.643Z,25.20
2018-05-13T06:23:55.939Z,25.27
2018-05-13T06:24:58.492Z,26.85
2018-05-13T06:26:01.811Z,25.77
2018-05-13T06:27:04.343Z,29.67
2018-05-13T06:28:07.630Z,26.55
2018-05-13T06:29:10.925Z,26.10
2018-05-13T06:30:13.488Z,28.05
2018-05-13T06:31:16.040Z,30.37
2018-05-13T06:32:19.334Z,30.08
2018-05-13T06:33:21.878Z,29.37
2018-05-13T06:34:24.452Z,29.05
2018-05-13T06:35:27.751Z,32.13
2018-05-13T06:36:31.045Z,30.98
2018-05-13T06:37:33.559Z,30.62
2018-05-13T06:38:36.108Z,29.37
2018-05-13T06:39:38.732Z,28.30
2018-05-13T06:40:41.249Z,28.65
2018-05-13T06:41:43.788Z,29.85
2018-05-13T06:42:46.316Z,27.98
2018-05-13T06:43:49.662Z,28.45
2018-05-13T06:44:52.193Z,29.58
2018-05-13T06:45:54.712Z,35.53
2018-05-13T06:46:57.253Z,32.00
2018-05-13T06:47:59.783Z,29.08
2018-05-13T06:49:03.107Z,31.92
2018-05-13T06:50:05.652Z,31.27
2018-05-13T06:51:08.265Z,29.40
2018-05-13T06:52:10.802Z,29.15
2018-05-13T06:53:13.331Z,34.85
2018-05-13T06:54:16.626Z,38.97
2018-05-13T06:55:19.152Z,31.37
2018-05-13T06:56:21.726Z,33.10
2018-05-13T06:57:24.386Z,41.55
2018-05-13T06:58:26.871Z,31.98
2018-05-13T06:59:30.170Z,38.80
2018-05-13T07:00:33.499Z,31.85
2018-05-13T07:01:36.029Z,31.62
2018-05-13T07:02:38.551Z,35.63
2018-05-13T07:03:41.075Z,35.85
2018-05-13T07:04:43.605Z,32.78
2018-05-13T07:05:46.938Z,45.67
2018-05-13T07:06:49.466Z,31.98
2018-05-13T07:07:52.753Z,41.22
2018-05-13T07:08:55.281Z,35.50
2018-05-13T07:09:57.820Z,33.20
2018-05-13T07:11:00.386Z,32.15
2018-05-13T07:12:02.921Z,34.40
2018-05-13T07:13:05.450Z,33.63
2018-05-13T07:14:08.023Z,35.75
2018-05-13T07:15:10.563Z,34.53
2018-05-13T07:16:13.097Z,31.15
2018-05-13T07:17:15.661Z,34.35
2018-05-13T07:18:18.195Z,34.03
2018-05-13T07:19:21.527Z,33.90
2018-05-13T07:20:24.057Z,34.25
2018-05-13T07:21:27.349Z,33.10
2018-05-13T07:22:29.912Z,33.97
2018-05-13T07:23:32.447Z,38.05
2018-05-13T07:24:34.998Z,31.35
2018-05-13T07:25:37.568Z,32.03
2018-05-13T07:26:40.094Z,32.85
2018-05-13T07:27:42.630Z,35.78
2018-05-13T07:28:45.984Z,42.85
2018-05-13T07:29:48.531Z,34.15
2018-05-13T07:30:51.061Z,35.15
2018-05-13T07:31:54.349Z,36.80
2018-05-13T07:32:56.871Z,36.35
2018-05-13T07:33:59.472Z,37.50
2018-05-13T07:35:02.772Z,35.42
2018-05-13T07:36:05.316Z,33.38
2018-05-13T07:37:08.613Z,34.25
2018-05-13T07:38:11.147Z,36.90
2018-05-13T07:39:13.710Z,36.00
2018-05-13T07:40:16.248Z,39.13
2018-05-13T07:41:18.779Z,33.75
2018-05-13T07:42:21.321Z,36.97
2018-05-13T07:43:24.771Z,34.13
2018-05-13T07:44:28.008Z,40.15
2018-05-13T07:45:31.306Z,33.85
2018-05-13T07:46:33.840Z,36.50
2018-05-13T07:47:36.381Z,30.02
2018-05-13T07:48:38.960Z,36.92
2018-05-13T07:49:41.495Z,33.13
2018-05-13T07:50:44.027Z,40.03
2018-05-13T07:51:46.601Z,42.78
2018-05-13T07:52:49.136Z,35.28
2018-05-13T07:53:52.500Z,37.75
2018-05-13T07:54:55.047Z,37.38
2018-05-13T07:55:57.588Z,35.00
2018-05-13T07:57:00.147Z,30.27
2018-05-13T07:58:02.688Z,37.07
2018-05-13T07:59:06.032Z,34.40
2018-05-13T08:00:08.569Z,38.03
2018-05-13T08:01:11.095Z,32.33
2018-05-13T08:02:13.625Z,35.13
2018-05-13T08:03:16.164Z,31.73
2018-05-13T08:04:18.736Z,36.50
2018-05-13T08:05:21.261Z,30.27
2018-05-13T08:06:23.798Z,35.00
2018-05-13T08:07:26.330Z,33.60
2018-05-13T08:08:28.859Z,28.17
2018-05-13T08:09:31.422Z,34.50
2018-05-13T08:10:33.959Z,30.60
2018-05-13T08:11:36.499Z,37.23
2018-05-13T08:12:39.029Z,38.13
2018-05-13T08:13:41.555Z,30.63
2018-05-13T08:14:44.878Z,34.37
2018-05-13T08:15:47.413Z,31.07
2018-05-13T08:16:49.935Z,31.23
2018-05-13T08:17:53.237Z,30.80
2018-05-13T08:18:55.804Z,31.03
2018-05-13T08:19:58.358Z,37.60
2018-05-13T08:21:01.660Z,23.20
2018-05-13T08:22:04.194Z,22.43
2018-05-13T08:24:16.445Z,23.50
2018-05-13T08:25:18.976Z,23.63
2018-05-13T08:26:21.507Z,23.90
2018-05-13T08:27:24.038Z,34.03
2018-05-13T08:28:26.600Z,23.70
2018-05-13T08:29:29.119Z,27.90
2018-05-13T08:30:31.645Z,24.90
2018-05-13T08:31:34.177Z,26.00
2018-05-13T08:32:36.708Z,24.40
2018-05-13T08:33:39.281Z,30.37
2018-05-13T08:34:42.612Z,24.70
2018-05-13T08:35:45.145Z,28.40
2018-05-13T08:36:48.440Z,29.37
2018-05-13T08:37:50.978Z,28.07
2018-05-13T08:38:53.544Z,24.83
2018-05-13T08:39:56.105Z,27.20
2018-05-13T08:40:58.647Z,27.63
2018-05-13T08:42:01.276Z,22.47
2018-05-13T08:43:03.733Z,31.20
2018-05-13T08:44:07.026Z,25.53
2018-05-13T08:45:09.604Z,27.27
2018-05-13T08:46:12.143Z,23.13
2018-05-13T08:47:15.437Z,25.53
2018-05-13T08:48:18.740Z,26.80
2018-05-13T08:49:21.269Z,27.20
2018-05-13T08:50:23.834Z,23.27
2018-05-13T08:51:26.371Z,26.30
2018-05-13T08:52:28.906Z,24.30
2018-05-13T08:53:31.478Z,24.83
2018-05-13T08:54:33.989Z,28.10
2018-05-13T08:55:36.567Z,28.63
2018-05-13T08:56:39.865Z,23.20
2018-05-13T08:57:43.179Z,22.80
2018-05-13T08:58:46.321Z,24.03
2018-05-13T08:59:49.617Z,26.87
2018-05-13T09:00:52.945Z,21.67
2018-05-13T09:01:55.472Z,21.40
2018-05-13T09:02:58.004Z,27.70
2018-05-13T09:04:00.535Z,25.50
2018-05-13T09:05:03.064Z,26.53
2018-05-13T09:06:06.393Z,26.27
2018-05-13T09:07:08.935Z,26.73
2018-05-13T09:08:11.461Z,34.43
2018-05-13T09:09:13.987Z,23.03
2018-05-13T09:10:16.544Z,19.77
2018-05-13T09:11:19.073Z,29.80
2018-05-13T09:12:22.388Z,22.80
2018-05-13T09:13:24.995Z,30.10
2018-05-13T09:14:27.610Z,21.90
2018-05-13T09:15:30.106Z,27.00
2018-05-13T09:16:32.649Z,22.63
2018-05-13T09:17:35.183Z,20.70
2018-05-13T09:18:38.513Z,25.13
2018-05-13T09:19:41.051Z,26.80
2018-05-13T09:20:44.436Z,21.77
2018-05-13T09:21:46.899Z,25.30
2018-05-13T09:22:50.225Z,21.53
2018-05-13T09:23:52.779Z,21.63
2018-05-13T09:24:55.299Z,24.80
2018-05-13T09:25:58.600Z,23.50
2018-05-13T09:27:01.894Z,24.00
2018-05-13T09:28:04.417Z,23.37
2018-05-13T09:29:06.973Z,20.77
2018-05-13T09:30:09.504Z,26.97
2018-05-13T09:31:12.034Z,19.77
2018-05-13T09:32:15.326Z,21.27
2018-05-13T09:33:18.646Z,21.60
2018-05-13T09:34:21.209Z,20.30
2018-05-13T09:35:23.743Z,19.90
2018-05-13T09:36:27.036Z,22.63
2018-05-13T09:37:29.567Z,23.23
2018-05-13T09:38:32.113Z,21.83
2018-05-13T09:39:34.746Z,26.83
2018-05-13T09:40:37.235Z,20.93
2018-05-13T09:41:39.772Z,18.00
2018-05-13T09:42:42.341Z,21.77
2018-05-13T09:43:44.870Z,21.37
2018-05-13T09:44:47.428Z,21.53
2018-05-13T09:45:50.010Z,21.33
2018-05-13T09:46:52.506Z,18.57
2018-05-13T09:47:55.031Z,21.90
2018-05-13T09:48:57.557Z,25.20
2018-05-13T09:50:00.122Z,18.90
2018-05-13T09:51:03.425Z,21.37
2018-05-13T09:52:05.958Z,19.80
2018-05-13T09:53:08.488Z,17.70
2018-05-13T09:54:11.016Z,18.50
2018-05-13T09:55:13.578Z,21.00
2018-05-13T09:56:16.104Z,24.70
2018-05-13T09:57:19.388Z,20.83
2018-05-13T09:58:22.688Z,21.23
2018-05-13T09:59:25.252Z,26.27
2018-05-13T10:00:27.781Z,25.77
2018-05-13T10:01:30.295Z,24.03
2018-05-13T10:02:32.821Z,20.90
2018-05-13T10:03:35.363Z,22.20
2018-05-13T10:04:37.939Z,19.80
2018-05-13T10:05:40.457Z,21.40
2018-05-13T10:06:42.985Z,17.50
2018-05-13T10:07:45.511Z,16.27
2018-05-13T10:08:48.039Z,21.50
2018-05-13T10:09:51.377Z,22.33
2018-05-13T10:10:53.912Z,19.17
2018-05-13T10:11:56.441Z,25.13
2018-05-13T10:12:59.734Z,17.20
2018-05-13T10:14:03.031Z,18.27
2018-05-13T10:15:05.599Z,16.33
2018-05-13T10:16:08.161Z,15.90
2018-05-13T10:17:10.681Z,18.77
2018-05-13T10:18:13.224Z,16.33
2018-05-13T10:19:15.735Z,17.13
2018-05-13T10:20:18.294Z,17.43
2018-05-13T10:21:20.823Z,16.23
2018-05-13T10:22:23.348Z,26.93
2018-05-13T10:23:26.628Z,16.23
2018-05-13T10:24:29.923Z,19.73
2018-05-13T10:25:32.480Z,17.67
2018-05-13T10:26:35.771Z,16.40
2018-05-13T10:27:39.062Z,18.30
2018-05-13T10:28:41.588Z,16.20
2018-05-13T10:29:44.111Z,17.07
2018-05-13T10:30:46.680Z,17.57
2018-05-13T10:31:49.213Z,16.47
2018-05-13T10:32:52.519Z,16.73
2018-05-13T10:33:55.048Z,17.80
2018-05-13T10:34:57.578Z,18.60
2018-05-13T10:36:00.215Z,18.80
2018-05-13T10:37:02.682Z,15.87
2018-05-13T10:38:05.210Z,18.03
2018-05-13T10:39:07.740Z,23.37
2018-05-13T10:40:10.269Z,19.83
2018-05-13T10:41:12.836Z,17.60
2018-05-13T10:42:15.363Z,17.57
2018-05-13T10:43:17.894Z,18.80
2018-05-13T10:44:20.412Z,30.10
2018-05-13T10:45:23.706Z,17.43
2018-05-13T10:46:27.044Z,16.40
2018-05-13T10:47:29.581Z,18.13
2018-05-13T10:48:32.114Z,23.37
2018-05-13T10:49:35.412Z,18.23
2018-05-13T10:50:38.730Z,20.40
2018-05-13T10:51:41.293Z,20.77
2018-05-13T10:52:43.824Z,15.53
2018-05-13T10:53:47.113Z,18.47
2018-05-13T10:54:50.410Z,17.60
2018-05-13T10:55:52.937Z,20.77
2018-05-13T10:56:55.509Z,20.03
2018-05-13T10:57:58.829Z,19.03
2018-05-13T10:59:01.351Z,15.97
2018-05-13T11:00:03.924Z,23.43
2018-05-13T11:01:06.456Z,17.20
2018-05-13T11:02:08.988Z,16.10
2018-05-13T11:03:11.555Z,21.43
2018-05-13T11:04:14.080Z,19.80
2018-05-13T11:05:16.607Z,16.80
2018-05-13T11:06:19.136Z,26.10
2018-05-13T11:07:22.467Z,18.17
2018-05-13T11:08:24.996Z,19.30
2018-05-13T11:09:27.525Z,15.97
2018-05-13T11:10:30.089Z,17.90
2018-05-13T11:11:32.616Z,18.60
2018-05-13T11:12:35.189Z,16.30
2018-05-13T11:13:37.713Z,18.40
2018-05-13T11:14:41.007Z,18.40
2018-05-13T11:15:44.310Z,21.57
2018-05-13T11:16:46.839Z,14.73
2018-05-13T11:17:49.405Z,15.50
2018-05-13T11:18:51.937Z,15.40
2018-05-13T11:19:54.462Z,17.20
2018-05-13T11:20:56.989Z,19.93
2018-05-13T11:21:59.525Z,15.43
2018-05-13T11:23:02.101Z,15.70
2018-05-13T11:24:04.622Z,20.37
2018-05-13T11:25:07.913Z,13.93
2018-05-13T11:26:10.444Z,16.40
2018-05-13T11:27:12.972Z,18.33
2018-05-13T11:28:15.535Z,18.93
2018-05-13T11:29:18.833Z,21.90
2018-05-13T11:30:21.421Z,19.70
2018-05-13T11:31:23.892Z,17.27
2018-05-13T11:32:26.457Z,15.20
2018-05-13T11:33:28.999Z,25.90
2018-05-13T11:34:31.528Z,17.80
2018-05-13T11:35:34.059Z,11.63
2018-05-13T11:36:36.588Z,17.07
2018-05-13T11:37:39.147Z,24.53
2018-05-13T11:38:41.677Z,19.00
2018-05-13T11:39:45.006Z,18.67
2018-05-13T11:40:47.555Z,19.17
2018-05-13T11:41:50.141Z,17.40
2018-05-13T11:42:52.660Z,17.27
2018-05-13T11:43:55.951Z,13.70
2018-05-13T11:44:59.249Z,16.30
2018-05-13T11:46:01.770Z,15.07
2018-05-13T11:47:04.341Z,18.00
2018-05-13T11:48:06.855Z,15.30
2018-05-13T11:49:09.389Z,21.53
2018-05-13T11:50:12.683Z,23.97
2018-05-13T11:51:15.967Z,14.63
2018-05-13T11:52:18.531Z,18.47
2018-05-13T11:53:21.831Z,13.67
2018-05-13T11:54:24.384Z,17.80
2018-05-13T11:55:27.681Z,13.13
2018-05-13T11:56:30.222Z,14.43
2018-05-13T11:57:32.789Z,17.47
2018-05-13T11:58:36.111Z,13.47
2018-05-13T11:59:38.647Z,12.40
2018-05-13T12:00:41.940Z,14.87
2018-05-13T12:01:44.479Z,17.90
2018-05-13T12:02:47.012Z,15.67
2018-05-13T12:03:49.558Z,14.03
2018-05-13T12:04:52.125Z,12.87
2018-05-13T12:05:55.425Z,13.07
2018-05-13T12:06:57.966Z,16.43
2018-05-13T12:08:00.492Z,13.10
2018-05-13T12:09:03.023Z,10.93
2018-05-13T12:10:05.586Z,11.93
2018-05-13T12:11:08.145Z,10.90
2018-05-13T12:12:10.693Z,10.90
2018-05-13T12:13:13.228Z,14.93
2018-05-13T12:14:15.754Z,15.40
2018-05-13T12:15:18.318Z,12.13
2018-05-13T12:16:20.890Z,11.07
2018-05-13T12:17:23.425Z,11.70
2018-05-13T12:18:25.953Z,11.83
2018-05-13T12:19:28.510Z,11.13
2018-05-13T12:20:31.028Z,14.57
2018-05-13T12:21:33.550Z,10.90
2018-05-13T12:22:36.080Z,11.77
2018-05-13T12:23:38.650Z,11.23
2018-05-13T12:24:41.179Z,14.20
2018-05-13T12:25:43.716Z,13.00
2018-05-13T12:26:46.244Z,9.33
2018-05-13T12:27:48.755Z,8.27
2018-05-13T12:28:51.345Z,10.40
2018-05-13T12:29:53.918Z,10.20
2018-05-13T12:30:56.446Z,11.13
2018-05-13T12:31:58.978Z,8.53
2018-05-13T12:33:01.503Z,11.83
2018-05-13T12:34:04.819Z,9.30
2018-05-13T12:35:07.397Z,9.67
2018-05-13T12:36:09.917Z,7.70
2018-05-13T12:37:13.197Z,8.37
2018-05-13T12:38:16.500Z,14.10
2018-05-13T12:39:19.020Z,11.13
2018-05-13T12:40:21.572Z,9.90
2018-05-13T12:41:24.851Z,9.17
2018-05-13T12:42:27.378Z,9.93
2018-05-13T12:43:29.914Z,9.03
2018-05-13T12:44:32.449Z,11.13
2018-05-13T12:45:35.011Z,8.00
2018-05-13T12:46:37.527Z,9.77
2018-05-13T12:47:40.807Z,8.63
2018-05-13T12:48:44.121Z,12.07
2018-05-13T12:49:46.648Z,7.40
2018-05-13T12:50:49.950Z,9.50
2018-05-13T12:51:53.269Z,9.03
2018-05-13T12:52:55.796Z,11.57
2018-05-13T12:53:59.089Z,12.33
2018-05-13T12:55:02.380Z,12.40
2018-05-13T12:56:04.898Z,12.43
2018-05-13T12:57:07.469Z,15.10
2018-05-13T12:58:10.059Z,12.83
2018-05-13T12:59:13.342Z,7.20
2018-05-13T13:00:16.635Z,9.20
2018-05-13T13:01:19.925Z,11.63
2018-05-13T13:02:22.502Z,20.90
2018-05-13T13:03:25.054Z,7.40
2018-05-13T13:04:28.342Z,11.93
2018-05-13T13:05:30.939Z,11.77
2018-05-13T13:06:34.179Z,11.10
2018-05-13T13:07:36.799Z,15.43
2018-05-13T13:08:40.038Z,6.73
2018-05-13T13:09:43.336Z,6.77
2018-05-13T13:10:45.856Z,7.57
2018-05-13T13:11:48.380Z,13.73
2018-05-13T13:12:50.993Z,9.80
2018-05-13T13:13:53.549Z,7.93
2018-05-13T13:14:56.075Z,9.10
2018-05-13T13:15:58.599Z,9.10
2018-05-13T13:17:01.128Z,16.55
2018-05-13T13:18:03.692Z,11.27
2018-05-13T13:19:06.234Z,12.10
2018-05-13T13:20:08.830Z,10.77
2018-05-13T13:21:11.321Z,7.87
2018-05-13T13:22:13.854Z,7.70
2018-05-13T13:23:16.406Z,8.20
2018-05-13T13:24:18.936Z,12.67
2018-05-13T13:25:22.249Z,11.03
2018-05-13T13:26:24.776Z,9.67
2018-05-13T13:27:27.307Z,7.97
2018-05-13T13:28:29.868Z,7.60
2018-05-13T13:29:32.388Z,10.53
2018-05-13T13:30:35.697Z,8.47
2018-05-13T13:31:38.221Z,13.20
2018-05-13T13:32:40.743Z,10.00